EHRD/RTM METAR and TAF weather

Enter ICAO airport designator
Station Type Date Time Source
EHRD METAR 2022/07/01 01:55 UTC NOAA

EHRD 010155Z AUTO 20006KT 9999 FEW042 SCT048 14/13 Q1014 NOSIG


Station Type Date Time Source
EHRD Decoded METAR 2022/07/01 01:55 UTC NOAA

Rotterdam Airport Zestienhoven, Netherlands (EHRD) 51-57N 004-27E -4M
Jun 30, 2022 - 09:55 PM EDT / 2022.07.01 0155 UTC
Wind: from the SSW (200 degrees) at 7 MPH (6 KT):0
Visibility: greater than 7 mile(s):0
Sky conditions: partly cloudy
Temperature: 57 F (14 C)
Dew Point: 55 F (13 C)
Relative Humidity: 93%
Pressure (altimeter): 29.94 in. Hg (1014 hPa)
ob: EHRD 010155Z AUTO 20006KT 9999 FEW042 SCT048 14/13 Q1014 NOSIG
cycle: 2

Station Type Date Time Source
EHRD TAF 2022/06/30 18:27 UTC NOAA

TAF EHRD 301714Z 3018/0124 28008KT 9999 -RA SCT018 BKN030
TEMPO 3018/3020 7000 RA BKN012 PROB30
TEMPO 3018/3020 4000 RADZ BKN008
BECMG 3020/3022 21007KT NSW SCT025
BECMG 0108/0111 24014KT PROB40
TEMPO 0111/0114 6000 SHRA SCT022CB
BECMG 0117/0120 20008KT

Example: see airport list